sensor_id;sensor_type;location;lat;lon;timestamp;P1;durP1;ratioP1;P2;durP2;ratioP2
58896;SDS011;44677;52.378;10.400;2022-10-30T07:00:35;6.90;;;4.80;;
58896;SDS011;44677;52.378;10.400;2022-10-30T07:03:23;7.00;;;5.30;;
58896;SDS011;44677;52.378;10.400;2022-10-30T07:05:50;8.30;;;5.00;;
58896;SDS011;44677;52.378;10.400;2022-10-30T07:08:15;14.20;;;5.60;;
58896;SDS011;44677;52.378;10.400;2022-10-30T07:10:41;11.20;;;5.70;;
58896;SDS011;44677;52.378;10.400;2022-10-30T07:13:27;11.20;;;5.30;;
58896;SDS011;44677;52.378;10.400;2022-10-30T07:16:15;8.20;;;5.20;;
58896;SDS011;44677;52.378;10.400;2022-10-30T07:18:43;7.90;;;4.20;;
58896;SDS011;44677;52.378;10.400;2022-10-30T07:21:09;11.50;;;5.00;;
58896;SDS011;44677;52.378;10.400;2022-10-30T07:23:35;11.10;;;5.10;;
58896;SDS011;44677;52.378;10.400;2022-10-30T07:26:24;9.60;;;5.10;;
58896;SDS011;44677;52.378;10.400;2022-10-30T07:28:51;14.90;;;4.80;;
58896;SDS011;44677;52.378;10.400;2022-10-30T07:31:24;10.60;;;6.30;;
58896;SDS011;44677;52.378;10.400;2022-10-30T07:33:50;9.40;;;4.80;;
58896;SDS011;44677;52.378;10.400;2022-10-30T07:36:35;7.90;;;4.80;;
58896;SDS011;44677;52.378;10.400;2022-10-30T07:39:39;10.80;;;5.00;;
58896;SDS011;44677;52.378;10.400;2022-10-30T07:42:17;9.30;;;4.70;;
58896;SDS011;44677;52.378;10.400;2022-10-30T07:45:10;10.20;;;4.70;;
58896;SDS011;44677;52.378;10.400;2022-10-30T07:47:56;15.40;;;4.80;;
58896;SDS011;44677;52.378;10.400;2022-10-30T07:50:33;8.70;;;4.70;;
58896;SDS011;44677;52.378;10.400;2022-10-30T07:52:58;8.90;;;4.50;;
58896;SDS011;44677;52.378;10.400;2022-10-30T07:55:27;10.20;;;4.40;;
58896;SDS011;44677;52.378;10.400;2022-10-30T07:58:11;11.70;;;4.70;;
58896;SDS011;44677;52.378;10.400;2022-10-30T08:01:03;11.00;;;5.00;;
58896;SDS011;44677;52.378;10.400;2022-10-30T08:03:29;11.20;;;5.40;;
58896;SDS011;44677;52.378;10.400;2022-10-30T08:06:09;12.50;;;4.10;;
58896;SDS011;44677;52.378;10.400;2022-10-30T08:11:28;12.40;;;4.50;;
58896;SDS011;44677;52.378;10.400;2022-10-30T08:13:53;7.10;;;4.80;;
58896;SDS011;44677;52.378;10.400;2022-10-30T08:16:18;10.20;;;4.80;;
58896;SDS011;44677;52.378;10.400;2022-10-30T08:18:44;7.70;;;4.60;;
58896;SDS011;44677;52.378;10.400;2022-10-30T08:21:13;13.40;;;4.50;;
58896;SDS011;44677;52.378;10.400;2022-10-30T08:23:52;10.70;;;4.50;;
58896;SDS011;44677;52.378;10.400;2022-10-30T08:26:18;9.50;;;4.10;;
58896;SDS011;44677;52.378;10.400;2022-10-30T08:28:43;11.00;;;4.30;;
58896;SDS011;44677;52.378;10.400;2022-10-30T08:31:09;12.50;;;4.20;;
58896;SDS011;44677;52.378;10.400;2022-10-30T08:33:54;14.20;;;5.00;;
58896;SDS011;44677;52.378;10.400;2022-10-30T08:36:27;11.30;;;4.60;;
58896;SDS011;44677;52.378;10.400;2022-10-30T08:38:52;11.10;;;4.60;;
58896;SDS011;44677;52.378;10.400;2022-10-30T08:41:36;11.70;;;4.70;;
58896;SDS011;44677;52.378;10.400;2022-10-30T08:44:02;12.00;;;4.90;;
58896;SDS011;44677;52.378;10.400;2022-10-30T08:46:36;11.20;;;4.40;;
58896;SDS011;44677;52.378;10.400;2022-10-30T08:49:02;12.50;;;4.40;;
58896;SDS011;44677;52.378;10.400;2022-10-30T08:51:30;10.00;;;4.40;;
58896;SDS011;44677;52.378;10.400;2022-10-30T08:53:57;10.20;;;4.30;;
58896;SDS011;44677;52.378;10.400;2022-10-30T08:56:22;9.70;;;4.30;;
58896;SDS011;44677;52.378;10.400;2022-10-30T08:58:59;14.70;;;5.10;;
58896;SDS011;44677;52.378;10.400;2022-10-30T09:01:25;7.20;;;3.80;;
58896;SDS011;44677;52.378;10.400;2022-10-30T09:04:10;9.80;;;4.70;;
58896;SDS011;44677;52.378;10.400;2022-10-30T09:07:07;11.30;;;4.20;;
58896;SDS011;44677;52.378;10.400;2022-10-30T09:10:04;9.50;;;4.50;;
58896;SDS011;44677;52.378;10.400;2022-10-30T09:12:32;10.40;;;4.20;;
58896;SDS011;44677;52.378;10.400;2022-10-30T09:15:06;15.00;;;4.80;;
58896;SDS011;44677;52.378;10.400;2022-10-30T09:17:39;11.00;;;3.80;;
58896;SDS011;44677;52.378;10.400;2022-10-30T09:22:37;9.60;;;4.70;;
58896;SDS011;44677;52.378;10.400;2022-10-30T09:25:06;9.20;;;4.00;;
58896;SDS011;44677;52.378;10.400;2022-10-30T09:28:07;8.00;;;4.20;;
58896;SDS011;44677;52.378;10.400;2022-10-30T09:30:46;10.50;;;3.80;;
58896;SDS011;44677;52.378;10.400;2022-10-30T09:33:17;11.80;;;4.00;;
58896;SDS011;44677;52.378;10.400;2022-10-30T09:36:01;7.80;;;4.40;;
58896;SDS011;44677;52.378;10.400;2022-10-30T09:38:27;9.40;;;4.20;;
58896;SDS011;44677;52.378;10.400;2022-10-30T09:41:07;10.10;;;4.50;;
58896;SDS011;44677;52.378;10.400;2022-10-30T09:44:12;12.50;;;4.10;;
58896;SDS011;44677;52.378;10.400;2022-10-30T09:49:34;9.10;;;4.40;;
58896;SDS011;44677;52.378;10.400;2022-10-30T09:57:55;10.70;;;3.70;;
58896;SDS011;44677;52.378;10.400;2022-10-30T10:00:28;9.00;;;4.20;;
58896;SDS011;44677;52.378;10.400;2022-10-30T10:05:57;8.30;;;3.80;;
58896;SDS011;44677;52.378;10.400;2022-10-30T10:08:48;8.90;;;4.10;;
58896;SDS011;44677;52.378;10.400;2022-10-30T10:11:36;8.20;;;3.70;;
58896;SDS011;44677;52.378;10.400;2022-10-30T10:14:12;14.00;;;4.10;;
58896;SDS011;44677;52.378;10.400;2022-10-30T10:16:43;9.80;;;4.00;;
58896;SDS011;44677;52.378;10.400;2022-10-30T10:22:01;11.60;;;4.30;;
58896;SDS011;44677;52.378;10.400;2022-10-30T10:27:08;13.00;;;4.00;;
58896;SDS011;44677;52.378;10.400;2022-10-30T10:35:23;13.10;;;4.90;;
58896;SDS011;44677;52.378;10.400;2022-10-30T10:51:50;8.60;;;4.40;;
58896;SDS011;44677;52.378;10.400;2022-10-30T10:54:24;14.40;;;4.40;;
58896;SDS011;44677;52.378;10.400;2022-10-30T10:56:53;12.20;;;4.30;;
58896;SDS011;44677;52.378;10.400;2022-10-30T10:59:20;13.00;;;4.90;;
58896;SDS011;44677;52.378;10.400;2022-10-30T11:02:30;12.00;;;5.80;;
58896;SDS011;44677;52.378;10.400;2022-10-30T11:04:40;12.60;;;4.70;;
58896;SDS011;44677;52.378;10.400;2022-10-30T11:09:47;18.70;;;5.10;;
58896;SDS011;44677;52.378;10.400;2022-10-30T11:12:18;14.80;;;5.30;;
58896;SDS011;44677;52.378;10.400;2022-10-30T11:14:46;14.90;;;5.30;;
58896;SDS011;44677;52.378;10.400;2022-10-30T11:19:53;11.20;;;4.80;;
58896;SDS011;44677;52.378;10.400;2022-10-30T11:22:30;9.60;;;4.20;;
58896;SDS011;44677;52.378;10.400;2022-10-30T11:25:17;12.90;;;4.50;;
58896;SDS011;44677;52.378;10.400;2022-10-30T11:27:45;11.70;;;4.80;;
58896;SDS011;44677;52.378;10.400;2022-10-30T11:30:16;10.20;;;4.70;;
58896;SDS011;44677;52.378;10.400;2022-10-30T11:32:43;11.80;;;4.40;;
58896;SDS011;44677;52.378;10.400;2022-10-30T11:37:35;9.70;;;4.50;;
58896;SDS011;44677;52.378;10.400;2022-10-30T11:42:36;9.80;;;4.00;;
58896;SDS011;44677;52.378;10.400;2022-10-30T11:45:17;15.00;;;4.10;;
58896;SDS011;44677;52.378;10.400;2022-10-30T11:48:00;9.20;;;4.10;;
58896;SDS011;44677;52.378;10.400;2022-10-30T11:50:27;8.70;;;4.10;;
58896;SDS011;44677;52.378;10.400;2022-10-30T11:52:55;9.80;;;4.00;;
58896;SDS011;44677;52.378;10.400;2022-10-30T11:55:33;10.70;;;4.50;;
58896;SDS011;44677;52.378;10.400;2022-10-30T11:58:00;12.90;;;5.00;;
58896;SDS011;44677;52.378;10.400;2022-10-30T12:00:27;15.10;;;4.80;;
58896;SDS011;44677;52.378;10.400;2022-10-30T12:02:54;13.30;;;4.60;;
58896;SDS011;44677;52.378;10.400;2022-10-30T12:07:49;8.70;;;4.20;;
58896;SDS011;44677;52.378;10.400;2022-10-30T12:12:49;14.90;;;4.20;;
58896;SDS011;44677;52.378;10.400;2022-10-30T12:17:40;14.50;;;5.30;;
58896;SDS011;44677;52.378;10.400;2022-10-30T12:20:15;11.90;;;4.70;;
58896;SDS011;44677;52.378;10.400;2022-10-30T12:22:41;9.40;;;4.10;;
58896;SDS011;44677;52.378;10.400;2022-10-30T12:27:59;12.40;;;4.00;;
58896;SDS011;44677;52.378;10.400;2022-10-30T12:30:39;11.30;;;3.90;;
58896;SDS011;44677;52.378;10.400;2022-10-30T12:35:59;8.60;;;4.10;;
58896;SDS011;44677;52.378;10.400;2022-10-30T12:43:55;11.40;;;4.30;;
58896;SDS011;44677;52.378;10.400;2022-10-30T12:48:54;11.80;;;4.70;;
58896;SDS011;44677;52.378;10.400;2022-10-30T12:54:57;12.50;;;4.60;;
58896;SDS011;44677;52.378;10.400;2022-10-30T12:57:32;11.60;;;4.30;;
58896;SDS011;44677;52.378;10.400;2022-10-30T13:10:42;9.00;;;3.60;;
58896;SDS011;44677;52.378;10.400;2022-10-30T13:13:15;9.80;;;4.20;;
58896;SDS011;44677;52.378;10.400;2022-10-30T13:15:46;9.70;;;4.00;;
58896;SDS011;44677;52.378;10.400;2022-10-30T13:18:15;7.60;;;3.80;;
58896;SDS011;44677;52.378;10.400;2022-10-30T13:20:43;8.40;;;4.00;;
58896;SDS011;44677;52.378;10.400;2022-10-30T13:23:21;13.00;;;4.00;;
58896;SDS011;44677;52.378;10.400;2022-10-30T13:25:58;11.50;;;4.00;;
58896;SDS011;44677;52.378;10.400;2022-10-30T13:28:35;6.90;;;3.80;;
58896;SDS011;44677;52.378;10.400;2022-10-30T13:31:11;13.00;;;3.90;;
58896;SDS011;44677;52.378;10.400;2022-10-30T13:34:25;9.90;;;3.20;;
58896;SDS011;44677;52.378;10.400;2022-10-30T13:36:48;9.10;;;3.80;;
58896;SDS011;44677;52.378;10.400;2022-10-30T13:41:55;13.10;;;4.10;;
58896;SDS011;44677;52.378;10.400;2022-10-30T13:44:33;9.80;;;4.20;;
58896;SDS011;44677;52.378;10.400;2022-10-30T13:47:18;6.30;;;3.60;;
58896;SDS011;44677;52.378;10.400;2022-10-30T13:50:59;8.50;;;4.30;;
58896;SDS011;44677;52.378;10.400;2022-10-30T13:52:54;13.10;;;4.20;;
58896;SDS011;44677;52.378;10.400;2022-10-30T13:55:22;8.40;;;4.00;;
58896;SDS011;44677;52.378;10.400;2022-10-30T14:00:42;13.80;;;4.70;;
58896;SDS011;44677;52.378;10.400;2022-10-30T14:03:13;10.40;;;3.80;;
58896;SDS011;44677;52.378;10.400;2022-10-30T14:05:53;6.60;;;3.20;;
58896;SDS011;44677;52.378;10.400;2022-10-30T14:08:32;14.20;;;3.80;;
58896;SDS011;44677;52.378;10.400;2022-10-30T14:11:03;9.70;;;4.10;;
58896;SDS011;44677;52.378;10.400;2022-10-30T14:16:39;12.30;;;3.80;;
58896;SDS011;44677;52.378;10.400;2022-10-30T14:19:10;14.60;;;4.20;;
58896;SDS011;44677;52.378;10.400;2022-10-30T14:37:15;11.10;;;4.20;;
58896;SDS011;44677;52.378;10.400;2022-10-30T14:39:43;9.90;;;3.80;;
58896;SDS011;44677;52.378;10.400;2022-10-30T14:47:35;13.70;;;4.70;;
58896;SDS011;44677;52.378;10.400;2022-10-30T14:55:52;10.40;;;4.10;;
58896;SDS011;44677;52.378;10.400;2022-10-30T14:58:36;15.80;;;6.30;;
58896;SDS011;44677;52.378;10.400;2022-10-30T15:06:05;11.00;;;4.40;;
58896;SDS011;44677;52.378;10.400;2022-10-30T15:08:57;10.60;;;4.50;;
58896;SDS011;44677;52.378;10.400;2022-10-30T15:11:33;11.50;;;4.70;;
58896;SDS011;44677;52.378;10.400;2022-10-30T15:14:10;14.80;;;4.90;;
58896;SDS011;44677;52.378;10.400;2022-10-30T15:16:46;12.00;;;4.60;;
58896;SDS011;44677;52.378;10.400;2022-10-30T15:19:13;11.30;;;4.30;;
58896;SDS011;44677;52.378;10.400;2022-10-30T15:21:40;12.20;;;4.40;;
58896;SDS011;44677;52.378;10.400;2022-10-30T15:24:17;14.30;;;5.30;;
58896;SDS011;44677;52.378;10.400;2022-10-30T15:26:52;17.30;;;5.30;;
58896;SDS011;44677;52.378;10.400;2022-10-30T15:29:29;10.90;;;5.30;;
58896;SDS011;44677;52.378;10.400;2022-10-30T15:34:38;14.70;;;7.40;;
58896;SDS011;44677;52.378;10.400;2022-10-30T15:37:10;15.30;;;6.30;;
58896;SDS011;44677;52.378;10.400;2022-10-30T15:39:36;14.60;;;6.20;;
58896;SDS011;44677;52.378;10.400;2022-10-30T15:42:03;9.50;;;5.30;;
58896;SDS011;44677;52.378;10.400;2022-10-30T15:44:29;10.70;;;5.00;;
58896;SDS011;44677;52.378;10.400;2022-10-30T15:46:59;12.00;;;5.10;;
58896;SDS011;44677;52.378;10.400;2022-10-30T15:51:55;7.80;;;4.80;;
58896;SDS011;44677;52.378;10.400;2022-10-30T15:54:21;12.60;;;5.10;;
58896;SDS011;44677;52.378;10.400;2022-10-30T15:56:49;8.70;;;4.80;;
58896;SDS011;44677;52.378;10.400;2022-10-30T15:59:27;8.90;;;4.70;;
58896;SDS011;44677;52.378;10.400;2022-10-30T16:01:54;10.90;;;6.00;;
58896;SDS011;44677;52.378;10.400;2022-10-30T16:04:22;9.60;;;5.30;;
58896;SDS011;44677;52.378;10.400;2022-10-30T16:06:55;12.20;;;5.40;;
58896;SDS011;44677;52.378;10.400;2022-10-30T16:09:22;8.30;;;4.90;;
58896;SDS011;44677;52.378;10.400;2022-10-30T16:11:49;12.10;;;4.90;;
58896;SDS011;44677;52.378;10.400;2022-10-30T16:14:20;9.50;;;5.10;;
58896;SDS011;44677;52.378;10.400;2022-10-30T16:16:48;14.30;;;8.20;;
58896;SDS011;44677;52.378;10.400;2022-10-30T16:19:18;15.50;;;6.10;;
58896;SDS011;44677;52.378;10.400;2022-10-30T16:21:47;15.70;;;6.90;;
58896;SDS011;44677;52.378;10.400;2022-10-30T16:24:13;11.30;;;6.00;;
58896;SDS011;44677;52.378;10.400;2022-10-30T16:26:41;12.20;;;6.30;;
58896;SDS011;44677;52.378;10.400;2022-10-30T16:31:38;13.30;;;7.70;;
58896;SDS011;44677;52.378;10.400;2022-10-30T16:34:08;12.70;;;7.20;;
58896;SDS011;44677;52.378;10.400;2022-10-30T16:36:36;14.00;;;7.60;;
58896;SDS011;44677;52.378;10.400;2022-10-30T16:39:02;11.80;;;6.10;;
58896;SDS011;44677;52.378;10.400;2022-10-30T16:41:28;9.80;;;6.90;;
58896;SDS011;44677;52.378;10.400;2022-10-30T16:46:45;12.30;;;7.30;;
58896;SDS011;44677;52.378;10.400;2022-10-30T16:49:21;9.20;;;6.00;;
58896;SDS011;44677;52.378;10.400;2022-10-30T16:51:55;9.90;;;6.00;;
58896;SDS011;44677;52.378;10.400;2022-10-30T16:54:36;13.20;;;5.90;;
58896;SDS011;44677;52.378;10.400;2022-10-30T16:57:02;11.60;;;5.50;;
58896;SDS011;44677;52.378;10.400;2022-10-30T16:59:35;15.70;;;5.90;;
58896;SDS011;44677;52.378;10.400;2022-10-30T17:02:03;14.00;;;6.10;;
58896;SDS011;44677;52.378;10.400;2022-10-30T17:04:31;11.40;;;5.90;;
58896;SDS011;44677;52.378;10.400;2022-10-30T17:09:59;12.60;;;6.50;;
58896;SDS011;44677;52.378;10.400;2022-10-30T17:12:25;14.70;;;6.50;;
58896;SDS011;44677;52.378;10.400;2022-10-30T17:15:10;9.50;;;6.80;;
58896;SDS011;44677;52.378;10.400;2022-10-30T17:17:42;13.70;;;7.00;;
58896;SDS011;44677;52.378;10.400;2022-10-30T17:22:42;14.80;;;7.60;;
58896;SDS011;44677;52.378;10.400;2022-10-30T17:25:29;18.30;;;7.20;;
58896;SDS011;44677;52.378;10.400;2022-10-30T17:27:58;13.20;;;7.00;;
58896;SDS011;44677;52.378;10.400;2022-10-30T17:30:34;13.70;;;7.90;;
58896;SDS011;44677;52.378;10.400;2022-10-30T17:35:59;12.50;;;6.80;;
58896;SDS011;44677;52.378;10.400;2022-10-30T17:38:26;13.10;;;7.70;;
58896;SDS011;44677;52.378;10.400;2022-10-30T17:40:52;12.80;;;7.50;;
58896;SDS011;44677;52.378;10.400;2022-10-30T17:43:17;15.80;;;8.50;;
58896;SDS011;44677;52.378;10.400;2022-10-30T17:45:43;9.50;;;6.30;;
58896;SDS011;44677;52.378;10.400;2022-10-30T17:48:15;12.90;;;7.10;;
58896;SDS011;44677;52.378;10.400;2022-10-30T17:50:41;15.80;;;7.50;;
58896;SDS011;44677;52.378;10.400;2022-10-30T17:53:12;18.20;;;9.50;;
58896;SDS011;44677;52.378;10.400;2022-10-30T17:55:50;17.90;;;11.30;;
58896;SDS011;44677;52.378;10.400;2022-10-30T17:58:24;14.80;;;9.90;;
58896;SDS011;44677;52.378;10.400;2022-10-30T18:00:50;18.60;;;11.30;;
58896;SDS011;44677;52.378;10.400;2022-10-30T18:03:15;18.40;;;9.70;;
58896;SDS011;44677;52.378;10.400;2022-10-30T18:05:41;19.10;;;9.60;;
58896;SDS011;44677;52.378;10.400;2022-10-30T18:10:33;15.10;;;8.10;;
58896;SDS011;44677;52.378;10.400;2022-10-30T18:12:58;14.80;;;7.30;;
58896;SDS011;44677;52.378;10.400;2022-10-30T18:15:32;13.50;;;6.50;;
58896;SDS011;44677;52.378;10.400;2022-10-30T18:17:59;13.60;;;6.70;;
58896;SDS011;44677;52.378;10.400;2022-10-30T18:20:25;17.20;;;8.40;;
58896;SDS011;44677;52.378;10.400;2022-10-30T18:22:51;12.30;;;7.30;;
58896;SDS011;44677;52.378;10.400;2022-10-30T18:25:22;13.00;;;7.80;;
58896;SDS011;44677;52.378;10.400;2022-10-30T18:27:50;16.00;;;9.00;;
58896;SDS011;44677;52.378;10.400;2022-10-30T18:30:15;16.00;;;9.00;;
58896;SDS011;44677;52.378;10.400;2022-10-30T18:32:41;14.70;;;9.10;;
58896;SDS011;44677;52.378;10.400;2022-10-30T18:38:03;16.50;;;8.60;;
58896;SDS011;44677;52.378;10.400;2022-10-30T18:40:29;16.30;;;8.80;;
58896;SDS011;44677;52.378;10.400;2022-10-30T18:42:55;15.80;;;7.80;;
58896;SDS011;44677;52.378;10.400;2022-10-30T18:47:46;14.60;;;8.80;;
58896;SDS011;44677;52.378;10.400;2022-10-30T18:50:12;12.30;;;7.70;;
58896;SDS011;44677;52.378;10.400;2022-10-30T18:52:38;15.10;;;7.40;;
58896;SDS011;44677;52.378;10.400;2022-10-30T18:55:11;12.30;;;8.90;;
58896;SDS011;44677;52.378;10.400;2022-10-30T18:57:43;13.60;;;8.40;;
58896;SDS011;44677;52.378;10.400;2022-10-30T19:00:09;16.90;;;9.10;;
58896;SDS011;44677;52.378;10.400;2022-10-30T19:02:35;19.90;;;8.10;;
58896;SDS011;44677;52.378;10.400;2022-10-30T19:08:02;15.50;;;8.00;;
58896;SDS011;44677;52.378;10.400;2022-10-30T19:10:28;16.30;;;7.60;;
58896;SDS011;44677;52.378;10.400;2022-10-30T19:13:16;17.50;;;7.70;;
58896;SDS011;44677;52.378;10.400;2022-10-30T19:15:44;16.40;;;9.30;;
58896;SDS011;44677;52.378;10.400;2022-10-30T19:18:11;13.80;;;7.80;;
58896;SDS011;44677;52.378;10.400;2022-10-30T19:20:37;18.60;;;8.40;;
58896;SDS011;44677;52.378;10.400;2022-10-30T19:23:04;18.60;;;7.90;;
58896;SDS011;44677;52.378;10.400;2022-10-30T19:25:34;19.90;;;8.50;;
58896;SDS011;44677;52.378;10.400;2022-10-30T19:28:00;13.80;;;8.30;;
58896;SDS011;44677;52.378;10.400;2022-10-30T19:30:26;16.40;;;8.10;;
58896;SDS011;44677;52.378;10.400;2022-10-30T19:32:52;13.30;;;7.40;;
58896;SDS011;44677;52.378;10.400;2022-10-30T19:35:18;11.10;;;8.00;;
58896;SDS011;44677;52.378;10.400;2022-10-30T19:40:18;17.30;;;8.80;;
58896;SDS011;44677;52.378;10.400;2022-10-30T19:42:48;12.80;;;8.30;;
58896;SDS011;44677;52.378;10.400;2022-10-30T19:45:15;13.40;;;8.40;;
58896;SDS011;44677;52.378;10.400;2022-10-30T19:52:41;18.90;;;8.60;;
58896;SDS011;44677;52.378;10.400;2022-10-30T19:55:06;13.80;;;8.30;;
58896;SDS011;44677;52.378;10.400;2022-10-30T19:57:32;16.60;;;9.00;;
58896;SDS011;44677;52.378;10.400;2022-10-30T19:59:57;13.00;;;8.60;;
58896;SDS011;44677;52.378;10.400;2022-10-30T20:02:23;14.80;;;8.50;;
58896;SDS011;44677;52.378;10.400;2022-10-30T20:04:48;17.00;;;9.10;;
58896;SDS011;44677;52.378;10.400;2022-10-30T20:07:14;13.00;;;8.80;;
58896;SDS011;44677;52.378;10.400;2022-10-30T20:09:39;14.70;;;8.10;;
58896;SDS011;44677;52.378;10.400;2022-10-30T20:12:04;14.40;;;8.40;;
58896;SDS011;44677;52.378;10.400;2022-10-30T20:14:31;12.10;;;7.30;;
58896;SDS011;44677;52.378;10.400;2022-10-30T20:16:56;20.00;;;9.10;;
58896;SDS011;44677;52.378;10.400;2022-10-30T20:19:28;14.90;;;8.50;;
58896;SDS011;44677;52.378;10.400;2022-10-30T20:21:54;21.30;;;9.60;;
58896;SDS011;44677;52.378;10.400;2022-10-30T20:24:20;16.40;;;10.60;;
58896;SDS011;44677;52.378;10.400;2022-10-30T20:26:46;11.60;;;8.00;;
58896;SDS011;44677;52.378;10.400;2022-10-30T20:29:12;20.00;;;9.10;;
58896;SDS011;44677;52.378;10.400;2022-10-30T20:31:38;15.90;;;8.30;;
58896;SDS011;44677;52.378;10.400;2022-10-30T20:34:03;17.90;;;8.20;;
58896;SDS011;44677;52.378;10.400;2022-10-30T20:36:28;14.30;;;8.50;;
58896;SDS011;44677;52.378;10.400;2022-10-30T20:38:54;17.60;;;8.70;;
58896;SDS011;44677;52.378;10.400;2022-10-30T20:41:20;14.50;;;8.70;;
58896;SDS011;44677;52.378;10.400;2022-10-30T20:43:48;15.80;;;7.80;;
58896;SDS011;44677;52.378;10.400;2022-10-30T20:46:16;18.40;;;8.10;;
58896;SDS011;44677;52.378;10.400;2022-10-30T20:48:42;14.40;;;7.20;;
58896;SDS011;44677;52.378;10.400;2022-10-30T20:51:08;10.20;;;6.90;;
58896;SDS011;44677;52.378;10.400;2022-10-30T20:53:35;14.00;;;7.50;;
58896;SDS011;44677;52.378;10.400;2022-10-30T20:56:00;12.80;;;6.90;;
58896;SDS011;44677;52.378;10.400;2022-10-30T20:58:25;14.90;;;6.60;;
58896;SDS011;44677;52.378;10.400;2022-10-30T21:00:55;12.40;;;6.20;;
58896;SDS011;44677;52.378;10.400;2022-10-30T21:03:25;9.90;;;5.80;;
58896;SDS011;44677;52.378;10.400;2022-10-30T21:05:54;14.80;;;6.00;;
58896;SDS011;44677;52.378;10.400;2022-10-30T21:08:21;12.70;;;6.20;;
58896;SDS011;44677;52.378;10.400;2022-10-30T21:10:46;12.10;;;6.00;;
58896;SDS011;44677;52.378;10.400;2022-10-30T21:13:12;9.80;;;6.20;;
58896;SDS011;44677;52.378;10.400;2022-10-30T21:15:38;10.90;;;4.90;;
58896;SDS011;44677;52.378;10.400;2022-10-30T21:18:04;8.40;;;5.30;;
58896;SDS011;44677;52.378;10.400;2022-10-30T21:20:30;11.80;;;5.00;;
58896;SDS011;44677;52.378;10.400;2022-10-30T21:22:55;9.90;;;4.70;;
58896;SDS011;44677;52.378;10.400;2022-10-30T21:25:21;12.90;;;4.60;;
58896;SDS011;44677;52.378;10.400;2022-10-30T21:27:46;8.40;;;4.70;;
58896;SDS011;44677;52.378;10.400;2022-10-30T21:30:11;9.00;;;4.50;;
58896;SDS011;44677;52.378;10.400;2022-10-30T21:32:37;9.10;;;4.80;;
58896;SDS011;44677;52.378;10.400;2022-10-30T21:35:02;11.60;;;5.10;;
58896;SDS011;44677;52.378;10.400;2022-10-30T21:37:32;10.50;;;4.30;;
58896;SDS011;44677;52.378;10.400;2022-10-30T21:39:58;9.20;;;4.30;;
58896;SDS011;44677;52.378;10.400;2022-10-30T21:42:23;6.90;;;4.20;;
58896;SDS011;44677;52.378;10.400;2022-10-30T21:44:49;10.20;;;4.40;;
58896;SDS011;44677;52.378;10.400;2022-10-30T21:47:14;9.00;;;4.30;;
58896;SDS011;44677;52.378;10.400;2022-10-30T21:49:39;8.90;;;4.00;;
58896;SDS011;44677;52.378;10.400;2022-10-30T21:52:05;8.70;;;4.40;;
58896;SDS011;44677;52.378;10.400;2022-10-30T21:54:30;10.30;;;4.80;;
58896;SDS011;44677;52.378;10.400;2022-10-30T21:56:56;9.00;;;4.50;;
58896;SDS011;44677;52.378;10.400;2022-10-30T21:59:21;12.20;;;4.40;;
58896;SDS011;44677;52.378;10.400;2022-10-30T22:01:48;11.70;;;3.90;;
58896;SDS011;44677;52.378;10.400;2022-10-30T22:04:14;8.40;;;4.70;;
58896;SDS011;44677;52.378;10.400;2022-10-30T22:06:41;10.00;;;4.50;;
58896;SDS011;44677;52.378;10.400;2022-10-30T22:09:08;8.50;;;4.70;;
58896;SDS011;44677;52.378;10.400;2022-10-30T22:11:33;6.70;;;4.90;;
58896;SDS011;44677;52.378;10.400;2022-10-30T22:13:59;10.30;;;5.10;;
58896;SDS011;44677;52.378;10.400;2022-10-30T22:16:26;11.10;;;4.60;;
58896;SDS011;44677;52.378;10.400;2022-10-30T22:18:53;10.70;;;4.70;;
58896;SDS011;44677;52.378;10.400;2022-10-30T22:21:19;11.60;;;4.00;;
58896;SDS011;44677;52.378;10.400;2022-10-30T22:23:45;9.60;;;4.50;;
58896;SDS011;44677;52.378;10.400;2022-10-30T22:26:11;12.50;;;5.20;;
58896;SDS011;44677;52.378;10.400;2022-10-30T22:28:38;7.40;;;4.60;;
58896;SDS011;44677;52.378;10.400;2022-10-30T22:31:07;9.40;;;4.30;;
58896;SDS011;44677;52.378;10.400;2022-10-30T22:33:34;8.00;;;4.30;;
58896;SDS011;44677;52.378;10.400;2022-10-30T22:36:04;11.20;;;4.60;;
58896;SDS011;44677;52.378;10.400;2022-10-30T22:38:32;9.10;;;4.70;;
58896;SDS011;44677;52.378;10.400;2022-10-30T22:41:08;8.80;;;4.50;;
58896;SDS011;44677;52.378;10.400;2022-10-30T22:43:39;8.10;;;4.60;;
58896;SDS011;44677;52.378;10.400;2022-10-30T22:46:04;10.00;;;4.70;;
58896;SDS011;44677;52.378;10.400;2022-10-30T22:48:30;11.30;;;4.50;;
58896;SDS011;44677;52.378;10.400;2022-10-30T22:50:57;10.20;;;4.80;;
58896;SDS011;44677;52.378;10.400;2022-10-30T22:53:23;9.00;;;4.60;;
58896;SDS011;44677;52.378;10.400;2022-10-30T22:55:49;8.80;;;4.10;;
58896;SDS011;44677;52.378;10.400;2022-10-30T22:58:15;10.80;;;4.40;;
58896;SDS011;44677;52.378;10.400;2022-10-30T23:00:40;8.40;;;4.50;;
58896;SDS011;44677;52.378;10.400;2022-10-30T23:03:05;9.90;;;4.70;;
58896;SDS011;44677;52.378;10.400;2022-10-30T23:05:31;10.20;;;4.70;;
58896;SDS011;44677;52.378;10.400;2022-10-30T23:07:56;8.40;;;4.70;;
58896;SDS011;44677;52.378;10.400;2022-10-30T23:10:21;10.00;;;4.60;;
58896;SDS011;44677;52.378;10.400;2022-10-30T23:12:47;11.80;;;4.70;;
58896;SDS011;44677;52.378;10.400;2022-10-30T23:15:12;9.00;;;4.90;;
58896;SDS011;44677;52.378;10.400;2022-10-30T23:17:37;10.10;;;5.00;;
58896;SDS011;44677;52.378;10.400;2022-10-30T23:20:04;12.40;;;4.80;;
58896;SDS011;44677;52.378;10.400;2022-10-30T23:22:31;9.60;;;5.00;;
58896;SDS011;44677;52.378;10.400;2022-10-30T23:24:56;10.30;;;5.10;;
58896;SDS011;44677;52.378;10.400;2022-10-30T23:27:21;7.30;;;4.90;;
58896;SDS011;44677;52.378;10.400;2022-10-30T23:29:47;14.60;;;5.20;;
58896;SDS011;44677;52.378;10.400;2022-10-30T23:32:12;11.40;;;4.80;;
58896;SDS011;44677;52.378;10.400;2022-10-30T23:34:37;8.80;;;5.00;;
58896;SDS011;44677;52.378;10.400;2022-10-30T23:37:03;9.70;;;5.00;;
58896;SDS011;44677;52.378;10.400;2022-10-30T23:39:28;11.90;;;5.30;;
58896;SDS011;44677;52.378;10.400;2022-10-30T23:41:54;10.90;;;5.50;;
58896;SDS011;44677;52.378;10.400;2022-10-30T23:44:19;14.80;;;5.30;;
58896;SDS011;44677;52.378;10.400;2022-10-30T23:46:45;9.80;;;5.10;;
58896;SDS011;44677;52.378;10.400;2022-10-30T23:49:10;9.80;;;5.00;;
58896;SDS011;44677;52.378;10.400;2022-10-30T23:51:36;9.80;;;4.80;;
58896;SDS011;44677;52.378;10.400;2022-10-30T23:54:01;7.90;;;4.90;;
58896;SDS011;44677;52.378;10.400;2022-10-30T23:56:27;12.30;;;5.20;;
58896;SDS011;44677;52.378;10.400;2022-10-30T23:58:53;11.60;;;5.40;;
